sensor_id;sensor_type;location;lat;lon;timestamp;temperature;humidity
46231;DHT22;31949;51.404;-0.038;2022-12-24T00:01:05;10.10;99.90
46231;DHT22;31949;51.404;-0.038;2022-12-24T00:03:33;10.10;99.90
46231;DHT22;31949;51.404;-0.038;2022-12-24T00:06:05;10.00;99.90
46231;DHT22;31949;51.404;-0.038;2022-12-24T00:08:33;10.10;99.90
46231;DHT22;31949;51.404;-0.038;2022-12-24T00:11:01;10.00;99.90
46231;DHT22;31949;51.404;-0.038;2022-12-24T00:13:28;10.00;99.90
46231;DHT22;31949;51.404;-0.038;2022-12-24T00:15:55;10.00;99.90
46231;DHT22;31949;51.404;-0.038;2022-12-24T00:18:23;10.00;99.90
46231;DHT22;31949;51.404;-0.038;2022-12-24T00:20:50;10.00;99.90
46231;DHT22;31949;51.404;-0.038;2022-12-24T00:23:18;10.00;99.90
46231;DHT22;31949;51.404;-0.038;2022-12-24T00:25:46;10.00;99.90
46231;DHT22;31949;51.404;-0.038;2022-12-24T00:28:14;10.00;99.90
46231;DHT22;31949;51.404;-0.038;2022-12-24T00:30:42;10.10;99.90
46231;DHT22;31949;51.404;-0.038;2022-12-24T00:33:10;10.10;99.90
46231;DHT22;31949;51.404;-0.038;2022-12-24T00:35:38;10.10;99.90
46231;DHT22;31949;51.404;-0.038;2022-12-24T00:38:06;10.20;99.90
46231;DHT22;31949;51.404;-0.038;2022-12-24T00:40:34;10.20;99.90
46231;DHT22;31949;51.404;-0.038;2022-12-24T00:43:01;10.20;99.90
46231;DHT22;31949;51.404;-0.038;2022-12-24T00:45:28;10.20;99.90
46231;DHT22;31949;51.404;-0.038;2022-12-24T00:47:56;10.10;99.90
46231;DHT22;31949;51.404;-0.038;2022-12-24T00:50:23;10.20;99.90
46231;DHT22;31949;51.404;-0.038;2022-12-24T00:52:50;10.20;99.90
46231;DHT22;31949;51.404;-0.038;2022-12-24T00:55:18;10.20;99.90
46231;DHT22;31949;51.404;-0.038;2022-12-24T00:57:46;10.20;99.90
46231;DHT22;31949;51.404;-0.038;2022-12-24T01:00:13;10.10;99.90
46231;DHT22;31949;51.404;-0.038;2022-12-24T01:02:43;10.10;99.90
46231;DHT22;31949;51.404;-0.038;2022-12-24T01:05:11;10.10;99.90
46231;DHT22;31949;51.404;-0.038;2022-12-24T01:07:43;10.10;99.90
46231;DHT22;31949;51.404;-0.038;2022-12-24T01:10:13;10.10;99.90
46231;DHT22;31949;51.404;-0.038;2022-12-24T01:12:42;10.10;99.90
46231;DHT22;31949;51.404;-0.038;2022-12-24T01:15:10;10.00;99.90
46231;DHT22;31949;51.404;-0.038;2022-12-24T01:17:44;10.00;99.90
46231;DHT22;31949;51.404;-0.038;2022-12-24T01:20:14;10.00;99.90
46231;DHT22;31949;51.404;-0.038;2022-12-24T01:22:41;10.00;99.90
46231;DHT22;31949;51.404;-0.038;2022-12-24T01:25:09;10.00;99.90
46231;DHT22;31949;51.404;-0.038;2022-12-24T01:27:36;9.90;99.90
46231;DHT22;31949;51.404;-0.038;2022-12-24T01:30:05;9.90;99.90
46231;DHT22;31949;51.404;-0.038;2022-12-24T01:32:33;9.90;99.90
46231;DHT22;31949;51.404;-0.038;2022-12-24T01:35:00;9.90;99.90
46231;DHT22;31949;51.404;-0.038;2022-12-24T01:37:27;9.90;99.90
46231;DHT22;31949;51.404;-0.038;2022-12-24T01:39:57;9.90;99.90
46231;DHT22;31949;51.404;-0.038;2022-12-24T01:42:47;9.90;99.90
46231;DHT22;31949;51.404;-0.038;2022-12-24T01:45:42;9.80;99.90
46231;DHT22;31949;51.404;-0.038;2022-12-24T01:50:52;9.80;99.90
46231;DHT22;31949;51.404;-0.038;2022-12-24T01:53:20;9.80;99.90
46231;DHT22;31949;51.404;-0.038;2022-12-24T01:55:48;9.80;99.90
46231;DHT22;31949;51.404;-0.038;2022-12-24T01:58:17;9.80;99.90
46231;DHT22;31949;51.404;-0.038;2022-12-24T02:00:46;9.80;99.90
46231;DHT22;31949;51.404;-0.038;2022-12-24T02:03:14;9.80;99.90
46231;DHT22;31949;51.404;-0.038;2022-12-24T02:05:52;9.70;99.90
46231;DHT22;31949;51.404;-0.038;2022-12-24T02:08:20;9.80;99.90
46231;DHT22;31949;51.404;-0.038;2022-12-24T02:10:48;9.80;99.90
46231;DHT22;31949;51.404;-0.038;2022-12-24T02:13:18;9.80;99.90
46231;DHT22;31949;51.404;-0.038;2022-12-24T02:16:06;9.80;99.90
46231;DHT22;31949;51.404;-0.038;2022-12-24T02:27:18;9.90;99.90
46231;DHT22;31949;51.404;-0.038;2022-12-24T02:30:13;9.90;99.90
46231;DHT22;31949;51.404;-0.038;2022-12-24T02:32:58;9.90;99.90
46231;DHT22;31949;51.404;-0.038;2022-12-24T02:38:33;9.90;99.90
46231;DHT22;31949;51.404;-0.038;2022-12-24T02:43:36;9.80;99.90
46231;DHT22;31949;51.404;-0.038;2022-12-24T02:46:12;9.80;99.90
46231;DHT22;31949;51.404;-0.038;2022-12-24T02:48:41;9.70;99.90
46231;DHT22;31949;51.404;-0.038;2022-12-24T02:51:10;9.70;99.90
46231;DHT22;31949;51.404;-0.038;2022-12-24T02:53:38;9.70;99.90
46231;DHT22;31949;51.404;-0.038;2022-12-24T03:01:15;9.60;99.90
46231;DHT22;31949;51.404;-0.038;2022-12-24T03:04:11;9.70;99.90
46231;DHT22;31949;51.404;-0.038;2022-12-24T03:06:50;9.60;99.90
46231;DHT22;31949;51.404;-0.038;2022-12-24T03:12:36;9.70;99.90
46231;DHT22;31949;51.404;-0.038;2022-12-24T03:15:11;9.70;99.90
46231;DHT22;31949;51.404;-0.038;2022-12-24T03:17:40;9.70;99.90
46231;DHT22;31949;51.404;-0.038;2022-12-24T03:20:10;9.80;99.90
46231;DHT22;31949;51.404;-0.038;2022-12-24T03:22:39;9.80;99.90
46231;DHT22;31949;51.404;-0.038;2022-12-24T03:25:06;9.80;99.90
46231;DHT22;31949;51.404;-0.038;2022-12-24T03:27:34;9.80;99.90
46231;DHT22;31949;51.404;-0.038;2022-12-24T03:30:03;9.80;99.90
46231;DHT22;31949;51.404;-0.038;2022-12-24T03:32:34;9.80;99.90
46231;DHT22;31949;51.404;-0.038;2022-12-24T03:35:01;9.80;99.90
46231;DHT22;31949;51.404;-0.038;2022-12-24T03:37:28;9.80;99.90
46231;DHT22;31949;51.404;-0.038;2022-12-24T03:39:56;9.80;99.90
46231;DHT22;31949;51.404;-0.038;2022-12-24T03:42:23;9.80;99.90
46231;DHT22;31949;51.404;-0.038;2022-12-24T03:44:50;9.70;99.90
46231;DHT22;31949;51.404;-0.038;2022-12-24T03:47:17;9.70;99.90
46231;DHT22;31949;51.404;-0.038;2022-12-24T03:49:44;9.80;99.90
46231;DHT22;31949;51.404;-0.038;2022-12-24T03:52:12;9.80;99.90
46231;DHT22;31949;51.404;-0.038;2022-12-24T03:54:39;9.70;99.90
46231;DHT22;31949;51.404;-0.038;2022-12-24T03:57:06;9.70;99.90
46231;DHT22;31949;51.404;-0.038;2022-12-24T03:59:33;9.70;99.90
46231;DHT22;31949;51.404;-0.038;2022-12-24T04:02:00;9.70;99.90
46231;DHT22;31949;51.404;-0.038;2022-12-24T04:04:27;9.70;99.90
46231;DHT22;31949;51.404;-0.038;2022-12-24T04:06:55;9.70;99.90
46231;DHT22;31949;51.404;-0.038;2022-12-24T04:09:22;9.70;99.90
46231;DHT22;31949;51.404;-0.038;2022-12-24T04:11:49;9.70;99.90
46231;DHT22;31949;51.404;-0.038;2022-12-24T04:14:16;9.70;99.90
46231;DHT22;31949;51.404;-0.038;2022-12-24T04:16:43;9.60;99.90
46231;DHT22;31949;51.404;-0.038;2022-12-24T04:19:10;9.60;99.90
46231;DHT22;31949;51.404;-0.038;2022-12-24T04:21:38;9.60;99.90
46231;DHT22;31949;51.404;-0.038;2022-12-24T04:24:05;9.60;99.90
46231;DHT22;31949;51.404;-0.038;2022-12-24T04:26:32;9.60;99.90
46231;DHT22;31949;51.404;-0.038;2022-12-24T04:29:00;9.60;99.90
46231;DHT22;31949;51.404;-0.038;2022-12-24T04:31:27;9.60;99.90
46231;DHT22;31949;51.404;-0.038;2022-12-24T04:33:54;9.60;99.90
46231;DHT22;31949;51.404;-0.038;2022-12-24T04:36:21;9.60;99.90
46231;DHT22;31949;51.404;-0.038;2022-12-24T04:38:49;9.60;99.90
46231;DHT22;31949;51.404;-0.038;2022-12-24T04:41:21;9.60;99.90
46231;DHT22;31949;51.404;-0.038;2022-12-24T04:43:52;9.60;99.90
46231;DHT22;31949;51.404;-0.038;2022-12-24T04:46:25;9.60;99.90
46231;DHT22;31949;51.404;-0.038;2022-12-24T04:48:53;9.50;99.90
46231;DHT22;31949;51.404;-0.038;2022-12-24T04:51:21;9.50;99.90
46231;DHT22;31949;51.404;-0.038;2022-12-24T04:53:49;9.60;99.90
46231;DHT22;31949;51.404;-0.038;2022-12-24T04:56:35;9.50;99.90
46231;DHT22;31949;51.404;-0.038;2022-12-24T04:59:05;9.60;99.90
46231;DHT22;31949;51.404;-0.038;2022-12-24T05:01:32;9.50;99.90
46231;DHT22;31949;51.404;-0.038;2022-12-24T05:03:59;9.50;99.90
46231;DHT22;31949;51.404;-0.038;2022-12-24T05:06:31;9.50;99.90
46231;DHT22;31949;51.404;-0.038;2022-12-24T05:08:59;9.50;99.90
46231;DHT22;31949;51.404;-0.038;2022-12-24T05:11:26;9.50;99.90
46231;DHT22;31949;51.404;-0.038;2022-12-24T05:13:54;9.50;99.90
46231;DHT22;31949;51.404;-0.038;2022-12-24T05:16:22;9.40;99.90
46231;DHT22;31949;51.404;-0.038;2022-12-24T05:18:50;9.40;99.90
46231;DHT22;31949;51.404;-0.038;2022-12-24T05:21:19;9.40;99.90
46231;DHT22;31949;51.404;-0.038;2022-12-24T05:23:48;9.40;99.90
46231;DHT22;31949;51.404;-0.038;2022-12-24T05:26:48;9.40;99.90
46231;DHT22;31949;51.404;-0.038;2022-12-24T05:29:16;9.40;99.90
46231;DHT22;31949;51.404;-0.038;2022-12-24T05:31:44;9.40;99.90
46231;DHT22;31949;51.404;-0.038;2022-12-24T05:34:12;9.50;99.90
46231;DHT22;31949;51.404;-0.038;2022-12-24T05:36:40;9.40;99.90
46231;DHT22;31949;51.404;-0.038;2022-12-24T05:39:14;9.40;99.90
46231;DHT22;31949;51.404;-0.038;2022-12-24T05:41:44;9.40;99.90
46231;DHT22;31949;51.404;-0.038;2022-12-24T05:44:12;9.40;99.90
46231;DHT22;31949;51.404;-0.038;2022-12-24T05:46:39;9.40;99.90
46231;DHT22;31949;51.404;-0.038;2022-12-24T05:49:06;9.40;99.90
46231;DHT22;31949;51.404;-0.038;2022-12-24T05:51:33;9.30;99.90
46231;DHT22;31949;51.404;-0.038;2022-12-24T05:54:01;9.30;99.90
46231;DHT22;31949;51.404;-0.038;2022-12-24T05:56:28;9.40;99.90
46231;DHT22;31949;51.404;-0.038;2022-12-24T05:58:55;9.30;99.90
46231;DHT22;31949;51.404;-0.038;2022-12-24T06:01:24;9.30;99.90
46231;DHT22;31949;51.404;-0.038;2022-12-24T06:03:52;9.30;99.90
46231;DHT22;31949;51.404;-0.038;2022-12-24T06:06:21;9.30;99.90
46231;DHT22;31949;51.404;-0.038;2022-12-24T06:08:50;9.40;99.90
46231;DHT22;31949;51.404;-0.038;2022-12-24T06:11:21;9.30;99.90
46231;DHT22;31949;51.404;-0.038;2022-12-24T06:13:49;9.30;99.90
46231;DHT22;31949;51.404;-0.038;2022-12-24T06:16:18;9.30;99.90
46231;DHT22;31949;51.404;-0.038;2022-12-24T06:18:46;9.30;99.90
46231;DHT22;31949;51.404;-0.038;2022-12-24T06:21:13;9.30;99.90
46231;DHT22;31949;51.404;-0.038;2022-12-24T06:23:42;9.30;99.90
46231;DHT22;31949;51.404;-0.038;2022-12-24T06:26:16;9.20;99.90
46231;DHT22;31949;51.404;-0.038;2022-12-24T06:28:44;9.20;99.90
46231;DHT22;31949;51.404;-0.038;2022-12-24T06:31:13;9.10;99.90
46231;DHT22;31949;51.404;-0.038;2022-12-24T06:33:41;9.20;99.90
46231;DHT22;31949;51.404;-0.038;2022-12-24T06:36:14;9.10;99.90
46231;DHT22;31949;51.404;-0.038;2022-12-24T06:38:45;9.10;99.90
46231;DHT22;31949;51.404;-0.038;2022-12-24T06:41:12;9.00;99.90
46231;DHT22;31949;51.404;-0.038;2022-12-24T06:43:46;9.00;99.90
46231;DHT22;31949;51.404;-0.038;2022-12-24T06:46:14;9.00;99.90
46231;DHT22;31949;51.404;-0.038;2022-12-24T06:48:45;9.00;99.90
46231;DHT22;31949;51.404;-0.038;2022-12-24T06:51:14;8.90;99.90
46231;DHT22;31949;51.404;-0.038;2022-12-24T06:53:41;8.80;99.90
46231;DHT22;31949;51.404;-0.038;2022-12-24T06:56:11;8.80;99.90
46231;DHT22;31949;51.404;-0.038;2022-12-24T06:58:40;8.70;99.90
46231;DHT22;31949;51.404;-0.038;2022-12-24T07:01:10;8.70;99.90
46231;DHT22;31949;51.404;-0.038;2022-12-24T07:03:38;8.70;99.90
46231;DHT22;31949;51.404;-0.038;2022-12-24T07:06:07;8.70;99.90
46231;DHT22;31949;51.404;-0.038;2022-12-24T07:08:37;8.70;99.90
46231;DHT22;31949;51.404;-0.038;2022-12-24T07:11:04;8.60;99.90
46231;DHT22;31949;51.404;-0.038;2022-12-24T07:13:31;8.60;99.90
46231;DHT22;31949;51.404;-0.038;2022-12-24T07:16:01;8.60;99.90
46231;DHT22;31949;51.404;-0.038;2022-12-24T07:18:29;8.60;99.90
46231;DHT22;31949;51.404;-0.038;2022-12-24T07:20:57;8.60;99.90
46231;DHT22;31949;51.404;-0.038;2022-12-24T07:23:24;8.50;99.90
46231;DHT22;31949;51.404;-0.038;2022-12-24T07:25:51;8.50;99.90
46231;DHT22;31949;51.404;-0.038;2022-12-24T07:28:18;8.50;99.90
46231;DHT22;31949;51.404;-0.038;2022-12-24T07:30:54;8.50;99.90
46231;DHT22;31949;51.404;-0.038;2022-12-24T07:33:22;8.40;99.90
46231;DHT22;31949;51.404;-0.038;2022-12-24T07:36:03;8.40;99.90
46231;DHT22;31949;51.404;-0.038;2022-12-24T07:38:32;8.40;99.90
46231;DHT22;31949;51.404;-0.038;2022-12-24T07:40:59;8.40;99.90
46231;DHT22;31949;51.404;-0.038;2022-12-24T07:43:27;8.30;99.90
46231;DHT22;31949;51.404;-0.038;2022-12-24T07:45:55;8.30;99.90
46231;DHT22;31949;51.404;-0.038;2022-12-24T07:48:25;8.30;99.90
46231;DHT22;31949;51.404;-0.038;2022-12-24T07:50:53;8.30;99.90
46231;DHT22;31949;51.404;-0.038;2022-12-24T07:53:20;8.30;99.90
46231;DHT22;31949;51.404;-0.038;2022-12-24T07:55:47;8.20;99.90
46231;DHT22;31949;51.404;-0.038;2022-12-24T07:58:15;8.20;99.90
46231;DHT22;31949;51.404;-0.038;2022-12-24T08:00:42;8.20;99.90
46231;DHT22;31949;51.404;-0.038;2022-12-24T08:03:17;8.20;99.90
46231;DHT22;31949;51.404;-0.038;2022-12-24T08:05:45;8.10;99.90
46231;DHT22;31949;51.404;-0.038;2022-12-24T08:08:12;8.10;99.90
46231;DHT22;31949;51.404;-0.038;2022-12-24T08:10:40;8.10;99.90
46231;DHT22;31949;51.404;-0.038;2022-12-24T08:13:08;8.10;99.90
46231;DHT22;31949;51.404;-0.038;2022-12-24T08:15:38;8.00;99.90
46231;DHT22;31949;51.404;-0.038;2022-12-24T08:18:05;8.00;99.90
46231;DHT22;31949;51.404;-0.038;2022-12-24T08:20:32;8.00;99.90
46231;DHT22;31949;51.404;-0.038;2022-12-24T08:23:00;8.00;99.90
46231;DHT22;31949;51.404;-0.038;2022-12-24T08:25:27;8.00;99.90
46231;DHT22;31949;51.404;-0.038;2022-12-24T08:27:54;8.00;99.90
46231;DHT22;31949;51.404;-0.038;2022-12-24T08:30:22;7.90;99.90
46231;DHT22;31949;51.404;-0.038;2022-12-24T08:32:49;7.90;99.90
46231;DHT22;31949;51.404;-0.038;2022-12-24T08:35:16;7.90;99.90
46231;DHT22;31949;51.404;-0.038;2022-12-24T08:37:44;7.90;99.90
46231;DHT22;31949;51.404;-0.038;2022-12-24T08:40:11;7.90;99.90
46231;DHT22;31949;51.404;-0.038;2022-12-24T08:42:38;7.90;99.90
46231;DHT22;31949;51.404;-0.038;2022-12-24T08:45:06;7.90;99.90
46231;DHT22;31949;51.404;-0.038;2022-12-24T08:47:34;7.80;99.90
46231;DHT22;31949;51.404;-0.038;2022-12-24T08:50:01;7.80;99.90
46231;DHT22;31949;51.404;-0.038;2022-12-24T08:52:28;7.80;99.90
46231;DHT22;31949;51.404;-0.038;2022-12-24T08:54:55;7.80;99.90
46231;DHT22;31949;51.404;-0.038;2022-12-24T08:57:22;7.80;99.90
46231;DHT22;31949;51.404;-0.038;2022-12-24T08:59:49;7.80;99.90
46231;DHT22;31949;51.404;-0.038;2022-12-24T09:02:17;7.80;99.90
46231;DHT22;31949;51.404;-0.038;2022-12-24T09:04:45;7.70;99.90
46231;DHT22;31949;51.404;-0.038;2022-12-24T09:07:12;7.70;99.90
46231;DHT22;31949;51.404;-0.038;2022-12-24T09:09:39;7.70;99.90
46231;DHT22;31949;51.404;-0.038;2022-12-24T09:12:06;7.70;99.90
46231;DHT22;31949;51.404;-0.038;2022-12-24T09:14:34;7.70;99.90
46231;DHT22;31949;51.404;-0.038;2022-12-24T09:17:01;7.70;99.90
46231;DHT22;31949;51.404;-0.038;2022-12-24T09:19:28;7.70;99.90
46231;DHT22;31949;51.404;-0.038;2022-12-24T09:21:56;7.70;99.90
46231;DHT22;31949;51.404;-0.038;2022-12-24T09:24:23;7.70;99.90
46231;DHT22;31949;51.404;-0.038;2022-12-24T09:26:50;7.70;99.90
46231;DHT22;31949;51.404;-0.038;2022-12-24T09:29:24;7.70;99.90
46231;DHT22;31949;51.404;-0.038;2022-12-24T09:31:51;7.70;99.90
46231;DHT22;31949;51.404;-0.038;2022-12-24T09:34:21;7.80;99.90
46231;DHT22;31949;51.404;-0.038;2022-12-24T09:36:56;7.80;99.90
46231;DHT22;31949;51.404;-0.038;2022-12-24T09:39:23;7.80;99.90
46231;DHT22;31949;51.404;-0.038;2022-12-24T09:47:50;7.90;99.90
46231;DHT22;31949;51.404;-0.038;2022-12-24T09:50:41;8.00;99.90
46231;DHT22;31949;51.404;-0.038;2022-12-24T09:56:22;8.10;99.90
46231;DHT22;31949;51.404;-0.038;2022-12-24T09:58:58;8.20;99.90
46231;DHT22;31949;51.404;-0.038;2022-12-24T10:01:29;8.20;99.90
46231;DHT22;31949;51.404;-0.038;2022-12-24T10:04:02;8.20;99.90
46231;DHT22;31949;51.404;-0.038;2022-12-24T10:06:37;8.30;99.90
46231;DHT22;31949;51.404;-0.038;2022-12-24T10:20:31;8.60;99.90
46231;DHT22;31949;51.404;-0.038;2022-12-24T10:23:10;8.60;99.90
46231;DHT22;31949;51.404;-0.038;2022-12-24T10:28:46;8.70;99.90
46231;DHT22;31949;51.404;-0.038;2022-12-24T10:31:15;8.80;99.90
46231;DHT22;31949;51.404;-0.038;2022-12-24T10:33:46;8.80;99.90
46231;DHT22;31949;51.404;-0.038;2022-12-24T10:36:18;8.80;99.90
46231;DHT22;31949;51.404;-0.038;2022-12-24T10:38:46;8.90;99.90
46231;DHT22;31949;51.404;-0.038;2022-12-24T10:41:14;8.90;99.90
46231;DHT22;31949;51.404;-0.038;2022-12-24T10:43:43;8.90;99.90
46231;DHT22;31949;51.404;-0.038;2022-12-24T10:46:25;9.00;99.90
46231;DHT22;31949;51.404;-0.038;2022-12-24T10:48:58;9.00;99.90
46231;DHT22;31949;51.404;-0.038;2022-12-24T10:51:54;9.00;99.90
46231;DHT22;31949;51.404;-0.038;2022-12-24T10:54:27;9.10;99.90
46231;DHT22;31949;51.404;-0.038;2022-12-24T10:56:59;9.10;99.90
46231;DHT22;31949;51.404;-0.038;2022-12-24T10:59:51;9.10;99.90
46231;DHT22;31949;51.404;-0.038;2022-12-24T11:02:34;9.20;99.90
46231;DHT22;31949;51.404;-0.038;2022-12-24T11:10:43;9.30;99.90
46231;DHT22;31949;51.404;-0.038;2022-12-24T11:13:35;9.40;99.90
46231;DHT22;31949;51.404;-0.038;2022-12-24T11:16:20;9.40;99.90
46231;DHT22;31949;51.404;-0.038;2022-12-24T11:18:50;9.40;99.90
46231;DHT22;31949;51.404;-0.038;2022-12-24T11:21:33;9.40;99.90
46231;DHT22;31949;51.404;-0.038;2022-12-24T11:24:12;9.50;99.90
46231;DHT22;31949;51.404;-0.038;2022-12-24T11:26:43;9.60;99.90
46231;DHT22;31949;51.404;-0.038;2022-12-24T11:29:30;9.60;99.90
46231;DHT22;31949;51.404;-0.038;2022-12-24T11:32:20;9.70;99.90
46231;DHT22;31949;51.404;-0.038;2022-12-24T11:34:48;9.80;99.90
46231;DHT22;31949;51.404;-0.038;2022-12-24T11:37:21;9.80;99.90
46231;DHT22;31949;51.404;-0.038;2022-12-24T11:39:54;9.90;99.90
46231;DHT22;31949;51.404;-0.038;2022-12-24T11:42:33;9.90;99.90
46231;DHT22;31949;51.404;-0.038;2022-12-24T11:45:21;10.00;99.90
46231;DHT22;31949;51.404;-0.038;2022-12-24T11:47:49;10.10;99.90
46231;DHT22;31949;51.404;-0.038;2022-12-24T11:50:30;10.20;99.90
46231;DHT22;31949;51.404;-0.038;2022-12-24T11:53:19;10.20;99.90
46231;DHT22;31949;51.404;-0.038;2022-12-24T11:55:52;10.20;99.90
46231;DHT22;31949;51.404;-0.038;2022-12-24T11:58:29;10.30;99.90
46231;DHT22;31949;51.404;-0.038;2022-12-24T12:03:56;10.40;99.90
46231;DHT22;31949;51.404;-0.038;2022-12-24T12:06:26;10.50;99.90
46231;DHT22;31949;51.404;-0.038;2022-12-24T12:08:58;10.40;99.90
46231;DHT22;31949;51.404;-0.038;2022-12-24T12:11:28;10.40;99.90
46231;DHT22;31949;51.404;-0.038;2022-12-24T12:13:57;10.40;99.90
46231;DHT22;31949;51.404;-0.038;2022-12-24T12:19:35;10.50;99.90
46231;DHT22;31949;51.404;-0.038;2022-12-24T12:22:09;10.50;99.90
46231;DHT22;31949;51.404;-0.038;2022-12-24T12:24:41;10.50;99.90
46231;DHT22;31949;51.404;-0.038;2022-12-24T12:29:44;10.60;99.90
46231;DHT22;31949;51.404;-0.038;2022-12-24T12:32:25;10.60;99.90
46231;DHT22;31949;51.404;-0.038;2022-12-24T12:35:03;10.60;99.90
46231;DHT22;31949;51.404;-0.038;2022-12-24T12:37:38;10.60;99.90
46231;DHT22;31949;51.404;-0.038;2022-12-24T12:40:16;10.70;99.90
46231;DHT22;31949;51.404;-0.038;2022-12-24T12:48:59;10.70;99.90
46231;DHT22;31949;51.404;-0.038;2022-12-24T12:57:17;10.70;99.90
46231;DHT22;31949;51.404;-0.038;2022-12-24T13:11:38;10.80;99.90
46231;DHT22;31949;51.404;-0.038;2022-12-24T13:13:54;10.90;99.90
46231;DHT22;31949;51.404;-0.038;2022-12-24T13:20:00;10.90;99.90
46231;DHT22;31949;51.404;-0.038;2022-12-24T13:22:30;10.90;99.90
46231;DHT22;31949;51.404;-0.038;2022-12-24T13:24:58;10.80;99.90
46231;DHT22;31949;51.404;-0.038;2022-12-24T13:27:28;10.80;99.90
46231;DHT22;31949;51.404;-0.038;2022-12-24T13:32:46;10.80;99.90
46231;DHT22;31949;51.404;-0.038;2022-12-24T13:37:48;10.90;99.90
46231;DHT22;31949;51.404;-0.038;2022-12-24T13:40:21;10.90;99.90
46231;DHT22;31949;51.404;-0.038;2022-12-24T13:47:59;11.10;99.90
46231;DHT22;31949;51.404;-0.038;2022-12-24T13:55:55;11.00;99.90
46231;DHT22;31949;51.404;-0.038;2022-12-24T13:58:24;11.10;99.90
46231;DHT22;31949;51.404;-0.038;2022-12-24T14:01:13;11.00;99.90
46231;DHT22;31949;51.404;-0.038;2022-12-24T14:03:53;11.10;99.90
46231;DHT22;31949;51.404;-0.038;2022-12-24T14:06:26;11.00;99.90
46231;DHT22;31949;51.404;-0.038;2022-12-24T14:09:04;11.00;99.90
46231;DHT22;31949;51.404;-0.038;2022-12-24T14:14:37;10.90;99.90
46231;DHT22;31949;51.404;-0.038;2022-12-24T14:17:24;10.90;99.90
46231;DHT22;31949;51.404;-0.038;2022-12-24T14:20:00;10.90;99.90
46231;DHT22;31949;51.404;-0.038;2022-12-24T14:22:44;10.90;99.90
46231;DHT22;31949;51.404;-0.038;2022-12-24T14:25:20;10.90;99.90
46231;DHT22;31949;51.404;-0.038;2022-12-24T14:28:05;10.90;99.90
46231;DHT22;31949;51.404;-0.038;2022-12-24T14:30:33;11.00;99.90
46231;DHT22;31949;51.404;-0.038;2022-12-24T14:33:00;11.00;99.90
46231;DHT22;31949;51.404;-0.038;2022-12-24T14:35:30;11.00;99.90
46231;DHT22;31949;51.404;-0.038;2022-12-24T14:38:14;11.00;99.90
46231;DHT22;31949;51.404;-0.038;2022-12-24T14:41:10;11.00;99.90
46231;DHT22;31949;51.404;-0.038;2022-12-24T14:46:45;10.90;99.90
46231;DHT22;31949;51.404;-0.038;2022-12-24T14:49:31;11.00;99.90
46231;DHT22;31949;51.404;-0.038;2022-12-24T14:52:30;11.00;99.90
46231;DHT22;31949;51.404;-0.038;2022-12-24T14:58:18;10.90;99.90
46231;DHT22;31949;51.404;-0.038;2022-12-24T15:00:47;10.90;99.90
46231;DHT22;31949;51.404;-0.038;2022-12-24T15:03:17;10.90;99.90
46231;DHT22;31949;51.404;-0.038;2022-12-24T15:05:48;10.80;99.90
46231;DHT22;31949;51.404;-0.038;2022-12-24T15:08:30;10.80;99.90
46231;DHT22;31949;51.404;-0.038;2022-12-24T15:11:04;10.80;99.90
46231;DHT22;31949;51.404;-0.038;2022-12-24T15:13:38;10.80;99.90
46231;DHT22;31949;51.404;-0.038;2022-12-24T15:16:13;10.80;99.90
46231;DHT22;31949;51.404;-0.038;2022-12-24T15:19:18;10.80;99.90
46231;DHT22;31949;51.404;-0.038;2022-12-24T15:21:38;10.80;99.90
46231;DHT22;31949;51.404;-0.038;2022-12-24T15:24:33;10.90;99.90
46231;DHT22;31949;51.404;-0.038;2022-12-24T15:27:10;10.80;99.90
46231;DHT22;31949;51.404;-0.038;2022-12-24T15:29:42;10.90;99.90
46231;DHT22;31949;51.404;-0.038;2022-12-24T15:32:16;10.90;99.90
46231;DHT22;31949;51.404;-0.038;2022-12-24T15:34:49;10.90;99.90
46231;DHT22;31949;51.404;-0.038;2022-12-24T15:37:30;10.80;99.90
46231;DHT22;31949;51.404;-0.038;2022-12-24T15:40:10;10.70;99.90
46231;DHT22;31949;51.404;-0.038;2022-12-24T15:42:44;10.70;99.90
46231;DHT22;31949;51.404;-0.038;2022-12-24T15:50:35;10.60;99.90
46231;DHT22;31949;51.404;-0.038;2022-12-24T15:53:10;10.60;99.90
46231;DHT22;31949;51.404;-0.038;2022-12-24T15:58:37;10.50;99.90
46231;DHT22;31949;51.404;-0.038;2022-12-24T16:03:37;10.60;99.90
46231;DHT22;31949;51.404;-0.038;2022-12-24T16:06:11;10.50;99.90
46231;DHT22;31949;51.404;-0.038;2022-12-24T16:08:40;10.40;99.90
46231;DHT22;31949;51.404;-0.038;2022-12-24T16:11:11;10.50;99.90
46231;DHT22;31949;51.404;-0.038;2022-12-24T16:13:40;10.40;99.90
46231;DHT22;31949;51.404;-0.038;2022-12-24T16:16:13;10.40;99.90
46231;DHT22;31949;51.404;-0.038;2022-12-24T16:18:44;10.40;99.90
46231;DHT22;31949;51.404;-0.038;2022-12-24T16:23:56;10.50;99.90
46231;DHT22;31949;51.404;-0.038;2022-12-24T16:26:24;10.50;99.90
46231;DHT22;31949;51.404;-0.038;2022-12-24T16:28:51;10.40;99.90
46231;DHT22;31949;51.404;-0.038;2022-12-24T16:31:28;10.40;99.90
46231;DHT22;31949;51.404;-0.038;2022-12-24T16:33:58;10.40;99.90
46231;DHT22;31949;51.404;-0.038;2022-12-24T16:36:27;10.30;99.90
46231;DHT22;31949;51.404;-0.038;2022-12-24T16:38:56;10.30;99.90
46231;DHT22;31949;51.404;-0.038;2022-12-24T16:41:41;10.20;99.90
46231;DHT22;31949;51.404;-0.038;2022-12-24T16:44:27;10.30;99.90
46231;DHT22;31949;51.404;-0.038;2022-12-24T16:46:55;10.30;99.90
46231;DHT22;31949;51.404;-0.038;2022-12-24T16:49:25;10.30;99.90
46231;DHT22;31949;51.404;-0.038;2022-12-24T16:51:53;10.30;99.90
46231;DHT22;31949;51.404;-0.038;2022-12-24T16:54:20;10.30;99.90
46231;DHT22;31949;51.404;-0.038;2022-12-24T16:56:47;10.30;99.90
46231;DHT22;31949;51.404;-0.038;2022-12-24T16:59:20;10.30;99.90
46231;DHT22;31949;51.404;-0.038;2022-12-24T17:01:48;10.30;99.90
46231;DHT22;31949;51.404;-0.038;2022-12-24T17:04:17;10.40;99.90
46231;DHT22;31949;51.404;-0.038;2022-12-24T17:06:47;10.40;99.90
46231;DHT22;31949;51.404;-0.038;2022-12-24T17:09:14;10.40;99.90
46231;DHT22;31949;51.404;-0.038;2022-12-24T17:11:41;10.40;99.90
46231;DHT22;31949;51.404;-0.038;2022-12-24T17:14:11;10.50;99.90
46231;DHT22;31949;51.404;-0.038;2022-12-24T17:16:49;10.40;99.90
46231;DHT22;31949;51.404;-0.038;2022-12-24T17:19:16;10.40;99.90
46231;DHT22;31949;51.404;-0.038;2022-12-24T17:21:44;10.40;99.90
46231;DHT22;31949;51.404;-0.038;2022-12-24T17:24:11;10.40;99.90
46231;DHT22;31949;51.404;-0.038;2022-12-24T17:26:38;10.40;99.90
46231;DHT22;31949;51.404;-0.038;2022-12-24T17:29:06;10.40;99.90
46231;DHT22;31949;51.404;-0.038;2022-12-24T17:31:34;10.40;99.90
46231;DHT22;31949;51.404;-0.038;2022-12-24T17:34:04;10.40;99.90
46231;DHT22;31949;51.404;-0.038;2022-12-24T17:36:31;10.50;99.90
46231;DHT22;31949;51.404;-0.038;2022-12-24T17:38:58;10.50;99.90
46231;DHT22;31949;51.404;-0.038;2022-12-24T17:41:32;10.50;99.90
46231;DHT22;31949;51.404;-0.038;2022-12-24T17:43:59;10.50;99.90
46231;DHT22;31949;51.404;-0.038;2022-12-24T17:46:26;10.50;99.90
46231;DHT22;31949;51.404;-0.038;2022-12-24T17:48:54;10.50;99.90
46231;DHT22;31949;51.404;-0.038;2022-12-24T17:51:22;10.50;99.90
46231;DHT22;31949;51.404;-0.038;2022-12-24T17:53:50;10.60;99.90
46231;DHT22;31949;51.404;-0.038;2022-12-24T17:56:17;10.70;99.90
46231;DHT22;31949;51.404;-0.038;2022-12-24T17:58:45;10.70;99.90